sensor_id;sensor_type;location;lat;lon;timestamp;P1;durP1;ratioP1;P2;durP2;ratioP2
26690;SDS011;14307;51.718;8.938;2023-08-06T00:01:24;12.70;;;8.73;;
26690;SDS011;14307;51.718;8.938;2023-08-06T00:03:51;10.35;;;9.23;;
26690;SDS011;14307;51.718;8.938;2023-08-06T00:06:18;10.77;;;9.35;;
26690;SDS011;14307;51.718;8.938;2023-08-06T00:08:45;11.10;;;9.38;;
26690;SDS011;14307;51.718;8.938;2023-08-06T00:11:12;13.75;;;10.90;;
26690;SDS011;14307;51.718;8.938;2023-08-06T00:13:39;11.18;;;8.68;;
26690;SDS011;14307;51.718;8.938;2023-08-06T00:16:12;13.05;;;10.52;;
26690;SDS011;14307;51.718;8.938;2023-08-06T00:18:40;11.98;;;9.30;;
26690;SDS011;14307;51.718;8.938;2023-08-06T00:21:07;11.48;;;9.35;;
26690;SDS011;14307;51.718;8.938;2023-08-06T00:23:33;11.70;;;10.38;;
26690;SDS011;14307;51.718;8.938;2023-08-06T00:26:00;12.80;;;10.32;;
26690;SDS011;14307;51.718;8.938;2023-08-06T00:28:27;10.50;;;8.80;;
26690;SDS011;14307;51.718;8.938;2023-08-06T00:30:54;11.82;;;9.30;;
26690;SDS011;14307;51.718;8.938;2023-08-06T00:33:22;10.57;;;9.45;;
26690;SDS011;14307;51.718;8.938;2023-08-06T00:35:49;12.55;;;10.13;;
26690;SDS011;14307;51.718;8.938;2023-08-06T00:38:16;11.43;;;9.10;;
26690;SDS011;14307;51.718;8.938;2023-08-06T00:40:42;11.95;;;9.27;;
26690;SDS011;14307;51.718;8.938;2023-08-06T00:43:09;11.05;;;9.20;;
26690;SDS011;14307;51.718;8.938;2023-08-06T00:45:36;11.15;;;9.65;;
26690;SDS011;14307;51.718;8.938;2023-08-06T00:48:03;13.77;;;10.57;;
26690;SDS011;14307;51.718;8.938;2023-08-06T00:50:31;11.60;;;9.48;;
26690;SDS011;14307;51.718;8.938;2023-08-06T00:52:58;11.98;;;9.65;;
26690;SDS011;14307;51.718;8.938;2023-08-06T00:55:26;11.98;;;9.20;;
26690;SDS011;14307;51.718;8.938;2023-08-06T00:57:53;13.80;;;9.98;;
26690;SDS011;14307;51.718;8.938;2023-08-06T01:00:22;12.18;;;9.60;;
26690;SDS011;14307;51.718;8.938;2023-08-06T01:02:51;15.63;;;11.30;;
26690;SDS011;14307;51.718;8.938;2023-08-06T01:05:19;13.80;;;10.23;;
26690;SDS011;14307;51.718;8.938;2023-08-06T01:10:42;12.98;;;10.23;;
26690;SDS011;14307;51.718;8.938;2023-08-06T01:18:36;11.18;;;10.02;;
26690;SDS011;14307;51.718;8.938;2023-08-06T01:21:05;12.68;;;10.70;;
26690;SDS011;14307;51.718;8.938;2023-08-06T01:23:31;11.50;;;10.02;;
26690;SDS011;14307;51.718;8.938;2023-08-06T01:31:32;15.50;;;11.93;;
26690;SDS011;14307;51.718;8.938;2023-08-06T01:34:02;13.82;;;12.25;;
26690;SDS011;14307;51.718;8.938;2023-08-06T01:36:32;14.50;;;11.68;;
26690;SDS011;14307;51.718;8.938;2023-08-06T01:38:59;12.88;;;11.40;;
26690;SDS011;14307;51.718;8.938;2023-08-06T01:41:26;16.63;;;12.82;;
26690;SDS011;14307;51.718;8.938;2023-08-06T01:43:52;15.75;;;12.18;;
26690;SDS011;14307;51.718;8.938;2023-08-06T01:46:19;13.95;;;11.20;;
26690;SDS011;14307;51.718;8.938;2023-08-06T01:48:46;13.40;;;11.98;;
26690;SDS011;14307;51.718;8.938;2023-08-06T01:51:12;14.70;;;12.45;;
26690;SDS011;14307;51.718;8.938;2023-08-06T01:53:39;16.23;;;12.38;;
26690;SDS011;14307;51.718;8.938;2023-08-06T01:56:06;11.95;;;10.63;;
26690;SDS011;14307;51.718;8.938;2023-08-06T01:58:34;12.73;;;11.30;;
26690;SDS011;14307;51.718;8.938;2023-08-06T02:01:01;12.60;;;11.30;;
26690;SDS011;14307;51.718;8.938;2023-08-06T02:03:28;11.30;;;10.20;;
26690;SDS011;14307;51.718;8.938;2023-08-06T02:05:55;11.05;;;9.43;;
26690;SDS011;14307;51.718;8.938;2023-08-06T02:08:22;12.15;;;10.05;;
26690;SDS011;14307;51.718;8.938;2023-08-06T02:10:48;12.18;;;10.65;;
26690;SDS011;14307;51.718;8.938;2023-08-06T02:13:15;14.23;;;10.93;;
26690;SDS011;14307;51.718;8.938;2023-08-06T02:15:42;13.13;;;10.68;;
26690;SDS011;14307;51.718;8.938;2023-08-06T02:18:10;14.23;;;11.77;;
26690;SDS011;14307;51.718;8.938;2023-08-06T02:20:37;14.43;;;10.88;;
26690;SDS011;14307;51.718;8.938;2023-08-06T02:23:04;13.15;;;10.93;;
26690;SDS011;14307;51.718;8.938;2023-08-06T02:25:31;14.00;;;10.05;;
26690;SDS011;14307;51.718;8.938;2023-08-06T02:27:58;12.10;;;10.77;;
26690;SDS011;14307;51.718;8.938;2023-08-06T02:30:25;15.30;;;11.93;;
26690;SDS011;14307;51.718;8.938;2023-08-06T02:32:52;16.30;;;12.25;;
26690;SDS011;14307;51.718;8.938;2023-08-06T02:35:19;12.38;;;10.65;;
26690;SDS011;14307;51.718;8.938;2023-08-06T02:37:46;17.23;;;12.52;;
26690;SDS011;14307;51.718;8.938;2023-08-06T02:40:12;17.95;;;12.65;;
26690;SDS011;14307;51.718;8.938;2023-08-06T02:42:39;17.45;;;14.40;;
26690;SDS011;14307;51.718;8.938;2023-08-06T02:45:06;17.40;;;14.02;;
26690;SDS011;14307;51.718;8.938;2023-08-06T02:47:33;21.05;;;14.73;;
26690;SDS011;14307;51.718;8.938;2023-08-06T02:50:00;18.80;;;14.48;;
26690;SDS011;14307;51.718;8.938;2023-08-06T02:52:28;18.27;;;14.30;;
26690;SDS011;14307;51.718;8.938;2023-08-06T02:54:55;19.17;;;14.32;;
26690;SDS011;14307;51.718;8.938;2023-08-06T02:57:22;21.08;;;15.23;;
26690;SDS011;14307;51.718;8.938;2023-08-06T02:59:50;18.55;;;14.93;;
26690;SDS011;14307;51.718;8.938;2023-08-06T03:02:20;19.33;;;15.35;;
26690;SDS011;14307;51.718;8.938;2023-08-06T03:04:57;20.73;;;15.60;;
26690;SDS011;14307;51.718;8.938;2023-08-06T03:07:28;22.00;;;15.38;;
26690;SDS011;14307;51.718;8.938;2023-08-06T03:10:01;23.55;;;15.95;;
26690;SDS011;14307;51.718;8.938;2023-08-06T03:12:28;23.95;;;16.13;;
26690;SDS011;14307;51.718;8.938;2023-08-06T03:14:56;21.95;;;17.27;;
26690;SDS011;14307;51.718;8.938;2023-08-06T03:17:23;23.50;;;16.67;;
26690;SDS011;14307;51.718;8.938;2023-08-06T03:19:50;25.88;;;17.65;;
26690;SDS011;14307;51.718;8.938;2023-08-06T03:22:17;26.27;;;18.27;;
26690;SDS011;14307;51.718;8.938;2023-08-06T03:24:44;24.23;;;18.60;;
26690;SDS011;14307;51.718;8.938;2023-08-06T03:27:11;28.17;;;19.77;;
26690;SDS011;14307;51.718;8.938;2023-08-06T03:29:40;29.85;;;19.90;;
26690;SDS011;14307;51.718;8.938;2023-08-06T03:32:10;27.75;;;19.70;;
26690;SDS011;14307;51.718;8.938;2023-08-06T03:34:39;30.17;;;20.95;;
26690;SDS011;14307;51.718;8.938;2023-08-06T03:37:05;33.38;;;21.70;;
26690;SDS011;14307;51.718;8.938;2023-08-06T03:39:33;32.75;;;20.98;;
26690;SDS011;14307;51.718;8.938;2023-08-06T03:42:00;32.08;;;21.48;;
26690;SDS011;14307;51.718;8.938;2023-08-06T03:44:27;32.55;;;22.13;;
26690;SDS011;14307;51.718;8.938;2023-08-06T03:46:54;34.65;;;21.58;;
26690;SDS011;14307;51.718;8.938;2023-08-06T03:49:21;35.92;;;23.27;;
26690;SDS011;14307;51.718;8.938;2023-08-06T03:51:48;37.17;;;21.92;;
26690;SDS011;14307;51.718;8.938;2023-08-06T03:54:14;37.05;;;23.88;;
26690;SDS011;14307;51.718;8.938;2023-08-06T03:56:41;42.65;;;25.90;;
26690;SDS011;14307;51.718;8.938;2023-08-06T03:59:08;46.97;;;27.30;;
26690;SDS011;14307;51.718;8.938;2023-08-06T04:01:35;47.50;;;26.80;;
26690;SDS011;14307;51.718;8.938;2023-08-06T04:04:01;50.60;;;27.48;;
26690;SDS011;14307;51.718;8.938;2023-08-06T04:06:28;44.35;;;26.05;;
26690;SDS011;14307;51.718;8.938;2023-08-06T04:08:55;49.40;;;26.52;;
26690;SDS011;14307;51.718;8.938;2023-08-06T04:11:22;49.10;;;25.70;;
26690;SDS011;14307;51.718;8.938;2023-08-06T04:13:48;50.15;;;25.50;;
26690;SDS011;14307;51.718;8.938;2023-08-06T04:16:16;53.83;;;28.17;;
26690;SDS011;14307;51.718;8.938;2023-08-06T04:18:43;50.95;;;26.52;;
26690;SDS011;14307;51.718;8.938;2023-08-06T04:21:12;45.90;;;26.67;;
26690;SDS011;14307;51.718;8.938;2023-08-06T04:23:39;46.03;;;26.05;;
26690;SDS011;14307;51.718;8.938;2023-08-06T04:26:07;46.72;;;25.77;;
26690;SDS011;14307;51.718;8.938;2023-08-06T04:28:36;36.60;;;22.35;;
26690;SDS011;14307;51.718;8.938;2023-08-06T04:31:03;43.40;;;24.67;;
26690;SDS011;14307;51.718;8.938;2023-08-06T04:33:32;37.35;;;24.17;;
26690;SDS011;14307;51.718;8.938;2023-08-06T04:36:04;40.55;;;25.42;;
26690;SDS011;14307;51.718;8.938;2023-08-06T04:38:32;41.88;;;25.20;;
26690;SDS011;14307;51.718;8.938;2023-08-06T04:40:59;43.83;;;25.95;;
26690;SDS011;14307;51.718;8.938;2023-08-06T04:43:28;40.67;;;24.98;;
26690;SDS011;14307;51.718;8.938;2023-08-06T04:45:57;45.92;;;24.55;;
26690;SDS011;14307;51.718;8.938;2023-08-06T04:48:27;39.42;;;25.60;;
26690;SDS011;14307;51.718;8.938;2023-08-06T04:50:53;40.00;;;24.55;;
26690;SDS011;14307;51.718;8.938;2023-08-06T04:53:23;37.33;;;24.77;;
26690;SDS011;14307;51.718;8.938;2023-08-06T04:55:49;36.33;;;24.48;;
26690;SDS011;14307;51.718;8.938;2023-08-06T04:58:16;33.90;;;23.40;;
26690;SDS011;14307;51.718;8.938;2023-08-06T05:00:43;29.80;;;21.17;;
26690;SDS011;14307;51.718;8.938;2023-08-06T05:03:09;27.42;;;20.15;;
26690;SDS011;14307;51.718;8.938;2023-08-06T05:05:36;26.73;;;19.63;;
26690;SDS011;14307;51.718;8.938;2023-08-06T05:08:05;24.73;;;18.10;;
26690;SDS011;14307;51.718;8.938;2023-08-06T05:10:32;24.25;;;17.80;;
26690;SDS011;14307;51.718;8.938;2023-08-06T05:12:59;23.98;;;18.50;;
26690;SDS011;14307;51.718;8.938;2023-08-06T05:15:26;25.27;;;18.67;;
26690;SDS011;14307;51.718;8.938;2023-08-06T05:17:53;24.15;;;18.30;;
26690;SDS011;14307;51.718;8.938;2023-08-06T05:20:20;25.08;;;18.02;;
26690;SDS011;14307;51.718;8.938;2023-08-06T05:22:47;23.58;;;18.33;;
26690;SDS011;14307;51.718;8.938;2023-08-06T05:25:14;22.25;;;15.88;;
26690;SDS011;14307;51.718;8.938;2023-08-06T05:27:41;21.58;;;16.80;;
26690;SDS011;14307;51.718;8.938;2023-08-06T05:30:08;24.52;;;16.60;;
26690;SDS011;14307;51.718;8.938;2023-08-06T05:32:35;21.67;;;17.25;;
26690;SDS011;14307;51.718;8.938;2023-08-06T05:35:02;20.63;;;15.93;;
26690;SDS011;14307;51.718;8.938;2023-08-06T05:37:29;22.67;;;16.52;;
26690;SDS011;14307;51.718;8.938;2023-08-06T05:39:56;20.45;;;16.58;;
26690;SDS011;14307;51.718;8.938;2023-08-06T05:42:22;20.83;;;14.82;;
26690;SDS011;14307;51.718;8.938;2023-08-06T05:44:49;18.23;;;14.60;;
26690;SDS011;14307;51.718;8.938;2023-08-06T05:47:16;19.85;;;15.50;;
26690;SDS011;14307;51.718;8.938;2023-08-06T05:49:43;25.45;;;16.10;;
26690;SDS011;14307;51.718;8.938;2023-08-06T05:52:09;20.23;;;15.52;;
26690;SDS011;14307;51.718;8.938;2023-08-06T05:54:36;26.33;;;15.55;;
26690;SDS011;14307;51.718;8.938;2023-08-06T05:57:05;18.10;;;15.02;;
26690;SDS011;14307;51.718;8.938;2023-08-06T05:59:33;18.25;;;14.70;;
26690;SDS011;14307;51.718;8.938;2023-08-06T06:01:59;20.65;;;15.05;;
26690;SDS011;14307;51.718;8.938;2023-08-06T06:04:32;16.80;;;13.77;;
26690;SDS011;14307;51.718;8.938;2023-08-06T06:06:58;26.30;;;15.48;;
26690;SDS011;14307;51.718;8.938;2023-08-06T06:09:31;18.65;;;14.93;;
26690;SDS011;14307;51.718;8.938;2023-08-06T06:11:58;20.95;;;15.65;;
26690;SDS011;14307;51.718;8.938;2023-08-06T06:14:25;17.70;;;12.70;;
26690;SDS011;14307;51.718;8.938;2023-08-06T06:16:52;16.35;;;13.43;;
26690;SDS011;14307;51.718;8.938;2023-08-06T06:19:19;20.15;;;13.65;;
26690;SDS011;14307;51.718;8.938;2023-08-06T06:21:46;15.23;;;13.20;;
26690;SDS011;14307;51.718;8.938;2023-08-06T06:24:15;16.23;;;13.73;;
26690;SDS011;14307;51.718;8.938;2023-08-06T06:26:42;13.55;;;12.15;;
26690;SDS011;14307;51.718;8.938;2023-08-06T06:29:12;14.50;;;12.27;;
26690;SDS011;14307;51.718;8.938;2023-08-06T06:31:39;16.17;;;12.32;;
26690;SDS011;14307;51.718;8.938;2023-08-06T06:34:06;19.13;;;12.13;;
26690;SDS011;14307;51.718;8.938;2023-08-06T06:36:32;16.05;;;13.93;;
26690;SDS011;14307;51.718;8.938;2023-08-06T06:38:59;18.17;;;13.73;;
26690;SDS011;14307;51.718;8.938;2023-08-06T06:41:26;15.23;;;11.90;;
26690;SDS011;14307;51.718;8.938;2023-08-06T06:44:02;13.93;;;12.40;;
26690;SDS011;14307;51.718;8.938;2023-08-06T06:46:29;14.10;;;12.18;;
26690;SDS011;14307;51.718;8.938;2023-08-06T06:48:56;12.55;;;11.32;;
26690;SDS011;14307;51.718;8.938;2023-08-06T06:51:22;15.65;;;11.63;;
26690;SDS011;14307;51.718;8.938;2023-08-06T06:53:49;12.80;;;10.38;;
26690;SDS011;14307;51.718;8.938;2023-08-06T06:56:16;13.73;;;12.50;;
26690;SDS011;14307;51.718;8.938;2023-08-06T06:58:42;12.88;;;11.70;;
26690;SDS011;14307;51.718;8.938;2023-08-06T07:01:09;14.10;;;11.48;;
26690;SDS011;14307;51.718;8.938;2023-08-06T07:03:38;12.68;;;11.48;;
26690;SDS011;14307;51.718;8.938;2023-08-06T07:06:05;13.07;;;12.07;;
26690;SDS011;14307;51.718;8.938;2023-08-06T07:08:32;14.32;;;12.65;;
26690;SDS011;14307;51.718;8.938;2023-08-06T07:11:00;14.50;;;13.35;;
26690;SDS011;14307;51.718;8.938;2023-08-06T07:13:30;13.77;;;12.82;;
26690;SDS011;14307;51.718;8.938;2023-08-06T07:15:57;14.70;;;13.63;;
26690;SDS011;14307;51.718;8.938;2023-08-06T07:18:24;17.00;;;15.80;;
26690;SDS011;14307;51.718;8.938;2023-08-06T07:20:52;18.13;;;16.98;;
26690;SDS011;14307;51.718;8.938;2023-08-06T07:23:23;17.23;;;16.23;;
26690;SDS011;14307;51.718;8.938;2023-08-06T07:25:50;18.83;;;17.73;;
26690;SDS011;14307;51.718;8.938;2023-08-06T07:28:17;18.88;;;17.55;;
26690;SDS011;14307;51.718;8.938;2023-08-06T07:30:45;19.27;;;18.08;;
26690;SDS011;14307;51.718;8.938;2023-08-06T07:33:12;22.15;;;20.63;;
26690;SDS011;14307;51.718;8.938;2023-08-06T07:35:39;21.00;;;19.60;;
26690;SDS011;14307;51.718;8.938;2023-08-06T07:38:06;20.83;;;19.73;;
26690;SDS011;14307;51.718;8.938;2023-08-06T07:40:35;21.73;;;20.52;;
26690;SDS011;14307;51.718;8.938;2023-08-06T07:43:03;23.63;;;21.45;;
26690;SDS011;14307;51.718;8.938;2023-08-06T07:45:36;23.20;;;21.77;;
26690;SDS011;14307;51.718;8.938;2023-08-06T07:48:03;23.67;;;22.38;;
26690;SDS011;14307;51.718;8.938;2023-08-06T07:50:31;25.63;;;23.25;;
26690;SDS011;14307;51.718;8.938;2023-08-06T07:52:58;25.13;;;23.73;;
26690;SDS011;14307;51.718;8.938;2023-08-06T07:55:25;24.60;;;23.23;;
26690;SDS011;14307;51.718;8.938;2023-08-06T07:57:52;25.05;;;23.55;;
26690;SDS011;14307;51.718;8.938;2023-08-06T08:00:19;26.00;;;24.50;;
26690;SDS011;14307;51.718;8.938;2023-08-06T08:02:46;30.60;;;29.00;;
26690;SDS011;14307;51.718;8.938;2023-08-06T08:05:13;31.30;;;29.48;;
26690;SDS011;14307;51.718;8.938;2023-08-06T08:07:40;30.02;;;28.35;;
26690;SDS011;14307;51.718;8.938;2023-08-06T08:10:06;30.05;;;28.35;;
26690;SDS011;14307;51.718;8.938;2023-08-06T08:12:33;29.50;;;27.77;;
26690;SDS011;14307;51.718;8.938;2023-08-06T08:15:00;29.98;;;28.23;;
26690;SDS011;14307;51.718;8.938;2023-08-06T08:17:27;30.33;;;28.73;;
26690;SDS011;14307;51.718;8.938;2023-08-06T08:19:54;31.52;;;29.73;;
26690;SDS011;14307;51.718;8.938;2023-08-06T08:22:21;31.08;;;29.17;;
26690;SDS011;14307;51.718;8.938;2023-08-06T08:24:47;31.15;;;29.55;;
26690;SDS011;14307;51.718;8.938;2023-08-06T08:27:14;31.05;;;29.35;;
26690;SDS011;14307;51.718;8.938;2023-08-06T08:29:41;31.15;;;29.27;;
26690;SDS011;14307;51.718;8.938;2023-08-06T08:32:08;29.83;;;27.95;;
26690;SDS011;14307;51.718;8.938;2023-08-06T08:34:35;28.88;;;27.27;;
26690;SDS011;14307;51.718;8.938;2023-08-06T08:37:01;29.63;;;28.02;;
26690;SDS011;14307;51.718;8.938;2023-08-06T08:39:28;29.55;;;27.98;;
26690;SDS011;14307;51.718;8.938;2023-08-06T08:41:55;30.10;;;28.48;;
26690;SDS011;14307;51.718;8.938;2023-08-06T08:44:22;29.75;;;27.77;;
26690;SDS011;14307;51.718;8.938;2023-08-06T08:46:54;28.52;;;26.92;;
26690;SDS011;14307;51.718;8.938;2023-08-06T08:49:21;29.85;;;28.25;;
26690;SDS011;14307;51.718;8.938;2023-08-06T08:51:50;28.58;;;27.08;;
26690;SDS011;14307;51.718;8.938;2023-08-06T08:54:21;30.85;;;29.13;;
26690;SDS011;14307;51.718;8.938;2023-08-06T08:56:50;29.15;;;27.55;;
26690;SDS011;14307;51.718;8.938;2023-08-06T08:59:16;32.70;;;30.73;;
26690;SDS011;14307;51.718;8.938;2023-08-06T09:01:43;32.35;;;30.63;;
26690;SDS011;14307;51.718;8.938;2023-08-06T09:04:16;30.77;;;29.08;;
26690;SDS011;14307;51.718;8.938;2023-08-06T09:06:46;31.65;;;29.85;;
26690;SDS011;14307;51.718;8.938;2023-08-06T09:09:24;33.63;;;31.83;;
26690;SDS011;14307;51.718;8.938;2023-08-06T09:12:01;33.15;;;31.25;;
26690;SDS011;14307;51.718;8.938;2023-08-06T09:14:32;33.08;;;31.27;;
26690;SDS011;14307;51.718;8.938;2023-08-06T09:16:58;28.77;;;27.15;;
26690;SDS011;14307;51.718;8.938;2023-08-06T09:19:26;30.42;;;28.83;;
26690;SDS011;14307;51.718;8.938;2023-08-06T09:21:54;27.38;;;25.98;;
26690;SDS011;14307;51.718;8.938;2023-08-06T09:24:22;29.33;;;27.65;;
26690;SDS011;14307;51.718;8.938;2023-08-06T09:26:49;28.75;;;27.25;;
26690;SDS011;14307;51.718;8.938;2023-08-06T09:29:16;32.25;;;30.27;;
26690;SDS011;14307;51.718;8.938;2023-08-06T09:34:11;27.17;;;25.67;;
26690;SDS011;14307;51.718;8.938;2023-08-06T09:36:42;31.00;;;29.10;;
26690;SDS011;14307;51.718;8.938;2023-08-06T09:39:12;31.67;;;29.77;;
26690;SDS011;14307;51.718;8.938;2023-08-06T09:41:43;32.83;;;31.02;;
26690;SDS011;14307;51.718;8.938;2023-08-06T09:44:16;31.83;;;29.92;;
26690;SDS011;14307;51.718;8.938;2023-08-06T09:46:48;32.58;;;30.77;;
26690;SDS011;14307;51.718;8.938;2023-08-06T09:49:17;33.15;;;31.25;;
26690;SDS011;14307;51.718;8.938;2023-08-06T09:51:47;32.72;;;30.95;;
26690;SDS011;14307;51.718;8.938;2023-08-06T09:54:17;32.08;;;30.27;;
26690;SDS011;14307;51.718;8.938;2023-08-06T09:56:53;34.78;;;32.88;;
26690;SDS011;14307;51.718;8.938;2023-08-06T09:59:22;32.90;;;31.00;;
26690;SDS011;14307;51.718;8.938;2023-08-06T10:01:49;33.53;;;31.73;;
26690;SDS011;14307;51.718;8.938;2023-08-06T10:04:18;32.17;;;30.48;;
26690;SDS011;14307;51.718;8.938;2023-08-06T10:06:51;34.60;;;32.67;;
26690;SDS011;14307;51.718;8.938;2023-08-06T10:09:19;34.95;;;33.25;;
26690;SDS011;14307;51.718;8.938;2023-08-06T10:11:50;36.08;;;34.13;;
26690;SDS011;14307;51.718;8.938;2023-08-06T10:14:21;34.08;;;32.28;;
26690;SDS011;14307;51.718;8.938;2023-08-06T10:16:52;35.40;;;33.60;;
26690;SDS011;14307;51.718;8.938;2023-08-06T10:19:23;35.17;;;33.28;;
26690;SDS011;14307;51.718;8.938;2023-08-06T10:24:50;36.45;;;34.55;;
26690;SDS011;14307;51.718;8.938;2023-08-06T10:32:52;36.78;;;34.70;;
26690;SDS011;14307;51.718;8.938;2023-08-06T10:38:11;39.22;;;37.05;;
26690;SDS011;14307;51.718;8.938;2023-08-06T10:40:49;36.88;;;34.88;;
26690;SDS011;14307;51.718;8.938;2023-08-06T10:43:34;32.80;;;30.92;;
26690;SDS011;14307;51.718;8.938;2023-08-06T10:46:08;37.13;;;34.85;;
26690;SDS011;14307;51.718;8.938;2023-08-06T10:51:07;31.35;;;29.55;;
26690;SDS011;14307;51.718;8.938;2023-08-06T10:53:35;37.50;;;35.42;;
26690;SDS011;14307;51.718;8.938;2023-08-06T10:56:12;31.95;;;30.05;;
26690;SDS011;14307;51.718;8.938;2023-08-06T10:58:40;30.92;;;29.13;;
26690;SDS011;14307;51.718;8.938;2023-08-06T11:01:08;30.85;;;29.15;;
26690;SDS011;14307;51.718;8.938;2023-08-06T11:03:35;29.77;;;27.88;;
26690;SDS011;14307;51.718;8.938;2023-08-06T11:06:03;29.30;;;27.52;;
26690;SDS011;14307;51.718;8.938;2023-08-06T11:08:34;30.90;;;29.20;;
26690;SDS011;14307;51.718;8.938;2023-08-06T11:11:11;32.55;;;30.75;;
26690;SDS011;14307;51.718;8.938;2023-08-06T11:13:42;31.17;;;29.48;;
26690;SDS011;14307;51.718;8.938;2023-08-06T11:16:17;30.95;;;29.35;;
26690;SDS011;14307;51.718;8.938;2023-08-06T11:18:45;31.30;;;29.55;;
26690;SDS011;14307;51.718;8.938;2023-08-06T11:21:12;31.27;;;29.23;;
26690;SDS011;14307;51.718;8.938;2023-08-06T11:23:40;31.20;;;29.50;;
26690;SDS011;14307;51.718;8.938;2023-08-06T11:26:07;30.80;;;29.05;;
26690;SDS011;14307;51.718;8.938;2023-08-06T11:28:34;31.65;;;29.30;;
26690;SDS011;14307;51.718;8.938;2023-08-06T11:31:01;30.25;;;28.63;;
26690;SDS011;14307;51.718;8.938;2023-08-06T11:33:29;29.98;;;28.38;;
26690;SDS011;14307;51.718;8.938;2023-08-06T11:35:58;29.40;;;27.80;;
26690;SDS011;14307;51.718;8.938;2023-08-06T11:38:26;29.05;;;27.45;;
26690;SDS011;14307;51.718;8.938;2023-08-06T11:40:55;27.60;;;26.10;;
26690;SDS011;14307;51.718;8.938;2023-08-06T11:43:22;27.33;;;25.83;;
26690;SDS011;14307;51.718;8.938;2023-08-06T11:45:50;27.00;;;25.50;;
26690;SDS011;14307;51.718;8.938;2023-08-06T11:48:18;30.80;;;29.20;;
26690;SDS011;14307;51.718;8.938;2023-08-06T11:50:45;30.65;;;28.95;;
26690;SDS011;14307;51.718;8.938;2023-08-06T11:53:13;31.33;;;29.60;;
26690;SDS011;14307;51.718;8.938;2023-08-06T11:55:41;32.08;;;30.27;;
26690;SDS011;14307;51.718;8.938;2023-08-06T11:58:09;30.27;;;28.67;;
26690;SDS011;14307;51.718;8.938;2023-08-06T12:00:37;29.42;;;27.83;;
26690;SDS011;14307;51.718;8.938;2023-08-06T12:03:05;30.27;;;28.58;;
26690;SDS011;14307;51.718;8.938;2023-08-06T12:05:32;29.33;;;27.83;;
26690;SDS011;14307;51.718;8.938;2023-08-06T12:08:00;29.65;;;27.98;;
26690;SDS011;14307;51.718;8.938;2023-08-06T12:10:29;29.25;;;27.65;;
26690;SDS011;14307;51.718;8.938;2023-08-06T12:12:57;29.88;;;28.17;;
26690;SDS011;14307;51.718;8.938;2023-08-06T12:15:24;30.70;;;28.90;;
26690;SDS011;14307;51.718;8.938;2023-08-06T12:17:50;30.30;;;28.50;;
26690;SDS011;14307;51.718;8.938;2023-08-06T12:20:17;30.88;;;28.17;;
26690;SDS011;14307;51.718;8.938;2023-08-06T12:22:44;29.40;;;27.50;;
26690;SDS011;14307;51.718;8.938;2023-08-06T12:25:12;28.40;;;26.75;;
26690;SDS011;14307;51.718;8.938;2023-08-06T12:27:40;26.80;;;25.30;;
26690;SDS011;14307;51.718;8.938;2023-08-06T12:30:08;24.27;;;22.55;;
26690;SDS011;14307;51.718;8.938;2023-08-06T12:32:37;22.80;;;21.40;;
26690;SDS011;14307;51.718;8.938;2023-08-06T12:35:04;22.70;;;21.23;;
26690;SDS011;14307;51.718;8.938;2023-08-06T12:37:33;23.98;;;22.38;;
26690;SDS011;14307;51.718;8.938;2023-08-06T12:40:00;22.88;;;21.27;;
26690;SDS011;14307;51.718;8.938;2023-08-06T12:42:45;22.90;;;21.50;;
26690;SDS011;14307;51.718;8.938;2023-08-06T12:45:12;23.50;;;22.10;;
26690;SDS011;14307;51.718;8.938;2023-08-06T12:47:40;22.25;;;20.83;;
26690;SDS011;14307;51.718;8.938;2023-08-06T12:50:07;24.10;;;22.52;;
26690;SDS011;14307;51.718;8.938;2023-08-06T12:52:34;22.67;;;21.17;;
26690;SDS011;14307;51.718;8.938;2023-08-06T12:55:01;22.58;;;21.08;;
26690;SDS011;14307;51.718;8.938;2023-08-06T12:57:28;23.48;;;21.83;;
26690;SDS011;14307;51.718;8.938;2023-08-06T13:00:15;20.98;;;19.75;;
26690;SDS011;14307;51.718;8.938;2023-08-06T13:02:42;20.50;;;19.40;;
26690;SDS011;14307;51.718;8.938;2023-08-06T13:05:09;21.23;;;19.73;;
26690;SDS011;14307;51.718;8.938;2023-08-06T13:07:36;20.42;;;19.33;;
26690;SDS011;14307;51.718;8.938;2023-08-06T13:10:03;21.00;;;19.70;;
26690;SDS011;14307;51.718;8.938;2023-08-06T13:12:30;21.23;;;20.02;;
26690;SDS011;14307;51.718;8.938;2023-08-06T13:14:57;20.80;;;19.40;;
26690;SDS011;14307;51.718;8.938;2023-08-06T13:17:25;20.05;;;18.85;;
26690;SDS011;14307;51.718;8.938;2023-08-06T13:19:53;20.27;;;18.98;;
26690;SDS011;14307;51.718;8.938;2023-08-06T13:22:20;20.85;;;19.55;;
26690;SDS011;14307;51.718;8.938;2023-08-06T13:24:47;21.58;;;20.20;;
26690;SDS011;14307;51.718;8.938;2023-08-06T13:27:13;21.52;;;20.13;;
26690;SDS011;14307;51.718;8.938;2023-08-06T13:29:40;21.88;;;20.27;;
26690;SDS011;14307;51.718;8.938;2023-08-06T13:32:07;23.13;;;21.63;;
26690;SDS011;14307;51.718;8.938;2023-08-06T13:34:33;22.08;;;20.65;;
26690;SDS011;14307;51.718;8.938;2023-08-06T13:37:00;22.60;;;21.17;;
26690;SDS011;14307;51.718;8.938;2023-08-06T13:39:28;22.75;;;21.38;;
26690;SDS011;14307;51.718;8.938;2023-08-06T13:41:55;22.83;;;21.42;;
26690;SDS011;14307;51.718;8.938;2023-08-06T13:44:22;23.88;;;22.38;;
26690;SDS011;14307;51.718;8.938;2023-08-06T13:46:49;23.30;;;21.73;;
26690;SDS011;14307;51.718;8.938;2023-08-06T13:49:16;23.20;;;21.90;;
26690;SDS011;14307;51.718;8.938;2023-08-06T13:51:43;23.15;;;21.75;;
26690;SDS011;14307;51.718;8.938;2023-08-06T13:54:09;24.40;;;22.83;;
26690;SDS011;14307;51.718;8.938;2023-08-06T13:56:36;25.13;;;23.63;;
26690;SDS011;14307;51.718;8.938;2023-08-06T13:59:23;23.63;;;21.98;;
26690;SDS011;14307;51.718;8.938;2023-08-06T14:01:50;22.75;;;21.35;;
26690;SDS011;14307;51.718;8.938;2023-08-06T14:04:21;21.83;;;20.63;;
26690;SDS011;14307;51.718;8.938;2023-08-06T14:06:48;22.25;;;20.75;;
26690;SDS011;14307;51.718;8.938;2023-08-06T14:09:15;23.67;;;22.23;;
26690;SDS011;14307;51.718;8.938;2023-08-06T14:11:44;21.20;;;19.90;;
26690;SDS011;14307;51.718;8.938;2023-08-06T14:14:11;19.73;;;18.23;;
26690;SDS011;14307;51.718;8.938;2023-08-06T14:16:38;18.98;;;17.98;;
26690;SDS011;14307;51.718;8.938;2023-08-06T14:19:05;20.30;;;19.10;;
26690;SDS011;14307;51.718;8.938;2023-08-06T14:21:32;18.48;;;17.50;;
26690;SDS011;14307;51.718;8.938;2023-08-06T14:24:02;16.65;;;15.75;;
26690;SDS011;14307;51.718;8.938;2023-08-06T14:26:29;14.52;;;13.65;;
26690;SDS011;14307;51.718;8.938;2023-08-06T14:28:56;14.05;;;12.82;;
26690;SDS011;14307;51.718;8.938;2023-08-06T14:31:22;12.15;;;11.35;;
26690;SDS011;14307;51.718;8.938;2023-08-06T14:33:49;11.00;;;10.30;;
26690;SDS011;14307;51.718;8.938;2023-08-06T14:36:16;11.88;;;11.07;;
26690;SDS011;14307;51.718;8.938;2023-08-06T14:38:43;12.00;;;11.02;;
26690;SDS011;14307;51.718;8.938;2023-08-06T14:41:24;10.60;;;9.80;;
26690;SDS011;14307;51.718;8.938;2023-08-06T14:43:51;9.05;;;8.23;;
26690;SDS011;14307;51.718;8.938;2023-08-06T14:46:18;8.57;;;7.85;;
26690;SDS011;14307;51.718;8.938;2023-08-06T14:48:44;10.75;;;8.45;;
26690;SDS011;14307;51.718;8.938;2023-08-06T14:51:11;7.43;;;6.85;;
26690;SDS011;14307;51.718;8.938;2023-08-06T14:53:38;7.82;;;7.22;;
26690;SDS011;14307;51.718;8.938;2023-08-06T14:56:08;7.40;;;6.65;;
26690;SDS011;14307;51.718;8.938;2023-08-06T14:58:35;8.25;;;5.60;;